This is the latest recevied weather packets stored in our database for station/object SP9WPN-12. If no packets are shown the sender has not sent any weather packets the latest 10 day(s).
| Time | Temp. | Humidity | Pressure | Rain* | Wind** | Luminosity | Snow |
|---|---|---|---|---|---|---|---|
| 1777795780 | 22.78° C | 36% | 1019.4 hPa | - | - | - | - |
| 1777795182 | 21.11° C | 39% | 1019.6 hPa | - | - | - | - |
| 1777794585 | 21.67° C | 37% | 1019.5 hPa | - | - | - | - |
| 1777793986 | 21.11° C | 39% | 1019.6 hPa | - | - | - | - |
| 1777793389 | 20° C | 41% | 1019.8 hPa | - | - | - | - |
| 1777792791 | 20.56° C | 40% | 1019.7 hPa | - | - | - | - |
| 1777792193 | 18.89° C | 43% | 1019.8 hPa | - | - | - | - |
| 1777791595 | 18.89° C | 45% | 1019.8 hPa | - | - | - | - |
| 1777790996 | 18.89° C | 44% | 1019.9 hPa | - | - | - | - |
| 1777790398 | 17.78° C | 48% | 1020 hPa | - | - | - | - |
| 1777789800 | 18.33° C | 46% | 1020 hPa | - | - | - | - |
| 1777788603 | 16.67° C | 49% | 1020.2 hPa | - | - | - | - |
| 1777788005 | 16.11° C | 50% | 1020.3 hPa | - | - | - | - |
| 1777787407 | 15° C | 52% | 1020.4 hPa | - | - | - | - |
| 1777786810 | 15° C | 54% | 1020.6 hPa | - | - | - | - |
| 1777786211 | 15° C | 55% | 1020.5 hPa | - | - | - | - |
| 1777785613 | 14.44° C | 60% | 1020.6 hPa | - | - | - | - |
| 1777785015 | 14.44° C | 60% | 1020.6 hPa | - | - | - | - |
| 1777783820 | 11.11° C | 70% | 1021 hPa | - | - | - | - |
| 1777783221 | 8.33° C | 82% | 1021.3 hPa | - | - | - | - |
| 1777782619 | 6.67° C | 90% | 1021.5 hPa | - | - | - | - |
| 1777782021 | 6.11° C | 93% | 1021.5 hPa | - | - | - | - |
| 1777781424 | 6.11° C | 94% | 1021.4 hPa | - | - | - | - |
| 1777780827 | 5.56° C | 95% | 1021.4 hPa | - | - | - | - |
| 1777780230 | 5.56° C | 93% | 1021.3 hPa | - | - | - | - |
* Rain since midnight (hover to see other rain measurements)
** Current wind speed in m/s (hover to see current wind gust speed)